sensor_id;sensor_type;location;lat;lon;timestamp;temperature;humidity
21906;DHT22;11117;48.644;9.006;2024-01-30T00:02:12;5.30;99.90
21906;DHT22;11117;48.644;9.006;2024-01-30T00:04:37;5.30;99.90
21906;DHT22;11117;48.644;9.006;2024-01-30T00:07:03;5.40;99.90
21906;DHT22;11117;48.644;9.006;2024-01-30T00:09:29;5.50;99.90
21906;DHT22;11117;48.644;9.006;2024-01-30T00:11:54;5.50;99.90
21906;DHT22;11117;48.644;9.006;2024-01-30T00:14:20;5.60;99.90
21906;DHT22;11117;48.644;9.006;2024-01-30T00:16:45;5.60;99.90
21906;DHT22;11117;48.644;9.006;2024-01-30T00:19:11;5.60;99.90
21906;DHT22;11117;48.644;9.006;2024-01-30T00:21:37;5.50;99.90
21906;DHT22;11117;48.644;9.006;2024-01-30T00:24:03;5.40;99.90
21906;DHT22;11117;48.644;9.006;2024-01-30T00:26:28;5.50;99.90
21906;DHT22;11117;48.644;9.006;2024-01-30T00:28:54;5.50;99.90
21906;DHT22;11117;48.644;9.006;2024-01-30T00:31:19;5.60;99.90
21906;DHT22;11117;48.644;9.006;2024-01-30T00:33:45;5.60;99.90
21906;DHT22;11117;48.644;9.006;2024-01-30T00:36:11;5.70;99.90
21906;DHT22;11117;48.644;9.006;2024-01-30T00:38:38;5.70;99.90
21906;DHT22;11117;48.644;9.006;2024-01-30T00:41:03;5.80;99.90
21906;DHT22;11117;48.644;9.006;2024-01-30T00:43:29;5.80;99.90
21906;DHT22;11117;48.644;9.006;2024-01-30T00:45:55;5.80;99.90
21906;DHT22;11117;48.644;9.006;2024-01-30T00:48:20;5.80;99.90
21906;DHT22;11117;48.644;9.006;2024-01-30T00:50:46;5.80;99.90
21906;DHT22;11117;48.644;9.006;2024-01-30T00:53:12;5.90;99.90
21906;DHT22;11117;48.644;9.006;2024-01-30T00:55:38;5.80;99.90
21906;DHT22;11117;48.644;9.006;2024-01-30T00:58:03;5.60;99.90
21906;DHT22;11117;48.644;9.006;2024-01-30T01:00:29;5.60;99.90
21906;DHT22;11117;48.644;9.006;2024-01-30T01:02:58;5.50;99.90
21906;DHT22;11117;48.644;9.006;2024-01-30T01:05:24;5.40;99.90
21906;DHT22;11117;48.644;9.006;2024-01-30T01:07:50;5.40;99.90
21906;DHT22;11117;48.644;9.006;2024-01-30T01:10:19;5.40;99.90
21906;DHT22;11117;48.644;9.006;2024-01-30T01:12:45;5.30;99.90
21906;DHT22;11117;48.644;9.006;2024-01-30T01:15:11;5.20;99.90
21906;DHT22;11117;48.644;9.006;2024-01-30T01:17:38;5.20;99.90
21906;DHT22;11117;48.644;9.006;2024-01-30T01:20:05;5.20;99.90
21906;DHT22;11117;48.644;9.006;2024-01-30T01:22:31;5.10;99.90
21906;DHT22;11117;48.644;9.006;2024-01-30T01:24:56;5.10;99.90
21906;DHT22;11117;48.644;9.006;2024-01-30T01:27:22;5.00;99.90
21906;DHT22;11117;48.644;9.006;2024-01-30T01:29:48;4.90;99.90
21906;DHT22;11117;48.644;9.006;2024-01-30T01:32:13;5.00;99.90
21906;DHT22;11117;48.644;9.006;2024-01-30T01:34:39;4.90;99.90
21906;DHT22;11117;48.644;9.006;2024-01-30T01:37:04;4.90;99.90
21906;DHT22;11117;48.644;9.006;2024-01-30T01:39:30;4.80;99.90
21906;DHT22;11117;48.644;9.006;2024-01-30T01:41:55;4.70;99.90
21906;DHT22;11117;48.644;9.006;2024-01-30T01:44:21;4.60;99.90
21906;DHT22;11117;48.644;9.006;2024-01-30T01:46:47;4.60;99.90
21906;DHT22;11117;48.644;9.006;2024-01-30T01:49:14;4.60;99.90
21906;DHT22;11117;48.644;9.006;2024-01-30T01:51:40;4.50;99.90
21906;DHT22;11117;48.644;9.006;2024-01-30T01:54:07;4.50;99.90
21906;DHT22;11117;48.644;9.006;2024-01-30T01:56:34;4.40;99.90
21906;DHT22;11117;48.644;9.006;2024-01-30T01:59:04;4.40;99.90
21906;DHT22;11117;48.644;9.006;2024-01-30T02:01:31;4.40;99.90
21906;DHT22;11117;48.644;9.006;2024-01-30T02:03:58;4.40;99.90
21906;DHT22;11117;48.644;9.006;2024-01-30T02:06:24;4.30;99.90
21906;DHT22;11117;48.644;9.006;2024-01-30T02:08:49;4.30;99.90
21906;DHT22;11117;48.644;9.006;2024-01-30T02:11:15;4.30;99.90
21906;DHT22;11117;48.644;9.006;2024-01-30T02:13:41;4.20;99.90
21906;DHT22;11117;48.644;9.006;2024-01-30T02:16:11;4.20;99.90
21906;DHT22;11117;48.644;9.006;2024-01-30T02:18:36;4.20;99.90
21906;DHT22;11117;48.644;9.006;2024-01-30T02:21:05;4.20;99.90
21906;DHT22;11117;48.644;9.006;2024-01-30T02:23:33;4.20;99.90
21906;DHT22;11117;48.644;9.006;2024-01-30T02:25:59;4.20;99.90
21906;DHT22;11117;48.644;9.006;2024-01-30T02:28:25;4.20;99.90
21906;DHT22;11117;48.644;9.006;2024-01-30T02:30:50;4.20;99.90
21906;DHT22;11117;48.644;9.006;2024-01-30T02:33:16;4.10;99.90
21906;DHT22;11117;48.644;9.006;2024-01-30T02:35:42;4.10;99.90
21906;DHT22;11117;48.644;9.006;2024-01-30T02:38:07;4.10;99.90
21906;DHT22;11117;48.644;9.006;2024-01-30T02:40:33;4.10;99.90
21906;DHT22;11117;48.644;9.006;2024-01-30T02:42:59;4.10;99.90
21906;DHT22;11117;48.644;9.006;2024-01-30T02:45:25;4.10;99.90
21906;DHT22;11117;48.644;9.006;2024-01-30T02:47:51;4.10;99.90
21906;DHT22;11117;48.644;9.006;2024-01-30T02:50:16;4.10;99.90
21906;DHT22;11117;48.644;9.006;2024-01-30T02:52:42;4.10;99.90
21906;DHT22;11117;48.644;9.006;2024-01-30T02:55:08;4.00;99.90
21906;DHT22;11117;48.644;9.006;2024-01-30T02:57:33;4.00;99.90
21906;DHT22;11117;48.644;9.006;2024-01-30T02:59:59;3.90;99.90
21906;DHT22;11117;48.644;9.006;2024-01-30T03:02:24;3.90;99.90
21906;DHT22;11117;48.644;9.006;2024-01-30T03:04:50;3.80;99.90
21906;DHT22;11117;48.644;9.006;2024-01-30T03:07:16;3.80;99.90
21906;DHT22;11117;48.644;9.006;2024-01-30T03:09:42;3.70;99.90
21906;DHT22;11117;48.644;9.006;2024-01-30T03:12:07;3.50;99.90
21906;DHT22;11117;48.644;9.006;2024-01-30T03:14:33;3.40;99.90
21906;DHT22;11117;48.644;9.006;2024-01-30T03:16:59;3.40;99.90
21906;DHT22;11117;48.644;9.006;2024-01-30T03:19:24;3.20;99.90
21906;DHT22;11117;48.644;9.006;2024-01-30T03:21:50;3.00;99.90
21906;DHT22;11117;48.644;9.006;2024-01-30T03:24:16;2.80;99.90
21906;DHT22;11117;48.644;9.006;2024-01-30T03:26:41;2.80;99.90
21906;DHT22;11117;48.644;9.006;2024-01-30T03:29:07;2.70;99.90
21906;DHT22;11117;48.644;9.006;2024-01-30T03:31:32;2.70;99.90
21906;DHT22;11117;48.644;9.006;2024-01-30T03:33:58;2.60;99.90
21906;DHT22;11117;48.644;9.006;2024-01-30T03:36:24;2.70;99.90
21906;DHT22;11117;48.644;9.006;2024-01-30T03:38:49;2.80;99.90
21906;DHT22;11117;48.644;9.006;2024-01-30T03:41:15;2.90;99.90
21906;DHT22;11117;48.644;9.006;2024-01-30T03:43:40;3.00;99.90
21906;DHT22;11117;48.644;9.006;2024-01-30T03:46:08;3.00;99.90
21906;DHT22;11117;48.644;9.006;2024-01-30T03:48:33;3.00;99.90
21906;DHT22;11117;48.644;9.006;2024-01-30T03:50:59;3.00;99.90
21906;DHT22;11117;48.644;9.006;2024-01-30T03:53:25;3.00;99.90
21906;DHT22;11117;48.644;9.006;2024-01-30T03:55:50;3.00;99.90
21906;DHT22;11117;48.644;9.006;2024-01-30T03:58:16;3.00;99.90
21906;DHT22;11117;48.644;9.006;2024-01-30T04:00:41;2.90;99.90
21906;DHT22;11117;48.644;9.006;2024-01-30T04:03:07;2.90;99.90
21906;DHT22;11117;48.644;9.006;2024-01-30T04:05:33;2.90;99.90
21906;DHT22;11117;48.644;9.006;2024-01-30T04:07:59;2.90;99.90
21906;DHT22;11117;48.644;9.006;2024-01-30T04:10:25;3.00;99.90
21906;DHT22;11117;48.644;9.006;2024-01-30T04:12:51;3.10;99.90
21906;DHT22;11117;48.644;9.006;2024-01-30T04:15:17;3.10;99.90
21906;DHT22;11117;48.644;9.006;2024-01-30T04:17:43;3.20;99.90
21906;DHT22;11117;48.644;9.006;2024-01-30T04:20:15;3.20;99.90
21906;DHT22;11117;48.644;9.006;2024-01-30T04:22:43;3.30;99.90
21906;DHT22;11117;48.644;9.006;2024-01-30T04:25:08;3.40;99.90
21906;DHT22;11117;48.644;9.006;2024-01-30T04:27:34;3.40;99.90
21906;DHT22;11117;48.644;9.006;2024-01-30T04:30:00;3.40;99.90
21906;DHT22;11117;48.644;9.006;2024-01-30T04:32:25;3.50;99.90
21906;DHT22;11117;48.644;9.006;2024-01-30T04:34:51;3.50;99.90
21906;DHT22;11117;48.644;9.006;2024-01-30T04:37:16;3.50;99.90
21906;DHT22;11117;48.644;9.006;2024-01-30T04:39:42;3.40;99.90
21906;DHT22;11117;48.644;9.006;2024-01-30T04:42:07;3.30;99.90
21906;DHT22;11117;48.644;9.006;2024-01-30T04:44:33;3.20;99.90
21906;DHT22;11117;48.644;9.006;2024-01-30T04:46:58;3.10;99.90
21906;DHT22;11117;48.644;9.006;2024-01-30T04:49:24;3.10;99.90
21906;DHT22;11117;48.644;9.006;2024-01-30T04:51:49;3.10;99.90
21906;DHT22;11117;48.644;9.006;2024-01-30T04:54:15;3.00;99.90
21906;DHT22;11117;48.644;9.006;2024-01-30T04:56:40;3.10;99.90
21906;DHT22;11117;48.644;9.006;2024-01-30T04:59:06;3.00;99.90
21906;DHT22;11117;48.644;9.006;2024-01-30T05:01:33;3.10;99.90
21906;DHT22;11117;48.644;9.006;2024-01-30T05:03:58;3.10;99.90
21906;DHT22;11117;48.644;9.006;2024-01-30T05:06:25;3.20;99.90
21906;DHT22;11117;48.644;9.006;2024-01-30T05:08:50;3.10;99.90
21906;DHT22;11117;48.644;9.006;2024-01-30T05:11:16;3.10;99.90
21906;DHT22;11117;48.644;9.006;2024-01-30T05:13:42;3.20;99.90
21906;DHT22;11117;48.644;9.006;2024-01-30T05:16:11;3.20;99.90
21906;DHT22;11117;48.644;9.006;2024-01-30T05:18:37;3.20;99.90
21906;DHT22;11117;48.644;9.006;2024-01-30T05:21:03;3.20;99.90
21906;DHT22;11117;48.644;9.006;2024-01-30T05:23:29;3.30;99.90
21906;DHT22;11117;48.644;9.006;2024-01-30T05:25:54;3.40;99.90
21906;DHT22;11117;48.644;9.006;2024-01-30T05:28:20;3.40;99.90
21906;DHT22;11117;48.644;9.006;2024-01-30T05:30:46;3.40;99.90
21906;DHT22;11117;48.644;9.006;2024-01-30T05:33:11;3.40;99.90
21906;DHT22;11117;48.644;9.006;2024-01-30T05:35:37;3.40;99.90
21906;DHT22;11117;48.644;9.006;2024-01-30T05:38:03;3.40;99.90
21906;DHT22;11117;48.644;9.006;2024-01-30T05:40:29;3.50;99.90
21906;DHT22;11117;48.644;9.006;2024-01-30T05:42:54;3.50;99.90
21906;DHT22;11117;48.644;9.006;2024-01-30T05:45:20;3.50;99.90
21906;DHT22;11117;48.644;9.006;2024-01-30T05:47:46;3.50;99.90
21906;DHT22;11117;48.644;9.006;2024-01-30T05:50:11;3.50;99.90
21906;DHT22;11117;48.644;9.006;2024-01-30T05:52:37;3.50;99.90
21906;DHT22;11117;48.644;9.006;2024-01-30T05:55:03;3.50;99.90
21906;DHT22;11117;48.644;9.006;2024-01-30T05:57:28;3.60;99.90
21906;DHT22;11117;48.644;9.006;2024-01-30T05:59:54;3.60;99.90
21906;DHT22;11117;48.644;9.006;2024-01-30T06:02:19;3.70;99.90
21906;DHT22;11117;48.644;9.006;2024-01-30T06:04:45;3.60;99.90
21906;DHT22;11117;48.644;9.006;2024-01-30T06:07:10;3.60;99.90
21906;DHT22;11117;48.644;9.006;2024-01-30T06:09:36;3.60;99.90
21906;DHT22;11117;48.644;9.006;2024-01-30T06:12:02;3.60;99.90
21906;DHT22;11117;48.644;9.006;2024-01-30T06:14:27;3.60;99.90
21906;DHT22;11117;48.644;9.006;2024-01-30T06:16:53;3.60;99.90
21906;DHT22;11117;48.644;9.006;2024-01-30T06:19:18;3.60;99.90
21906;DHT22;11117;48.644;9.006;2024-01-30T06:21:44;3.50;99.90
21906;DHT22;11117;48.644;9.006;2024-01-30T06:24:10;3.50;99.90
21906;DHT22;11117;48.644;9.006;2024-01-30T06:26:36;3.40;99.90
21906;DHT22;11117;48.644;9.006;2024-01-30T06:29:01;3.40;99.90
21906;DHT22;11117;48.644;9.006;2024-01-30T06:31:27;3.40;99.90
21906;DHT22;11117;48.644;9.006;2024-01-30T06:33:52;3.40;99.90
21906;DHT22;11117;48.644;9.006;2024-01-30T06:36:18;3.40;99.90
21906;DHT22;11117;48.644;9.006;2024-01-30T06:38:43;3.40;99.90
21906;DHT22;11117;48.644;9.006;2024-01-30T06:41:11;3.40;99.90
21906;DHT22;11117;48.644;9.006;2024-01-30T06:43:36;3.30;99.90
21906;DHT22;11117;48.644;9.006;2024-01-30T06:46:02;3.30;99.90
21906;DHT22;11117;48.644;9.006;2024-01-30T06:48:27;3.30;99.90
21906;DHT22;11117;48.644;9.006;2024-01-30T06:50:53;3.30;99.90
21906;DHT22;11117;48.644;9.006;2024-01-30T06:53:19;3.20;99.90
21906;DHT22;11117;48.644;9.006;2024-01-30T06:55:45;3.20;99.90
21906;DHT22;11117;48.644;9.006;2024-01-30T06:58:10;3.20;99.90
21906;DHT22;11117;48.644;9.006;2024-01-30T07:00:36;3.20;99.90
21906;DHT22;11117;48.644;9.006;2024-01-30T07:03:02;3.30;99.90
21906;DHT22;11117;48.644;9.006;2024-01-30T07:05:27;3.30;99.90
21906;DHT22;11117;48.644;9.006;2024-01-30T07:07:53;3.30;99.90
21906;DHT22;11117;48.644;9.006;2024-01-30T07:10:18;3.30;99.90
21906;DHT22;11117;48.644;9.006;2024-01-30T07:12:44;3.40;99.90
21906;DHT22;11117;48.644;9.006;2024-01-30T07:15:10;3.30;99.90
21906;DHT22;11117;48.644;9.006;2024-01-30T07:17:35;3.30;99.90
21906;DHT22;11117;48.644;9.006;2024-01-30T07:20:01;3.30;99.90
21906;DHT22;11117;48.644;9.006;2024-01-30T07:22:27;3.30;99.90
21906;DHT22;11117;48.644;9.006;2024-01-30T07:24:52;3.40;99.90
21906;DHT22;11117;48.644;9.006;2024-01-30T07:27:18;3.60;99.90
21906;DHT22;11117;48.644;9.006;2024-01-30T07:29:44;3.70;99.90
21906;DHT22;11117;48.644;9.006;2024-01-30T07:32:09;3.80;99.90
21906;DHT22;11117;48.644;9.006;2024-01-30T07:34:35;3.90;99.90
21906;DHT22;11117;48.644;9.006;2024-01-30T07:37:00;4.00;99.90
21906;DHT22;11117;48.644;9.006;2024-01-30T07:39:26;4.10;99.90
21906;DHT22;11117;48.644;9.006;2024-01-30T07:41:51;4.10;99.90
21906;DHT22;11117;48.644;9.006;2024-01-30T07:44:17;4.20;99.90
21906;DHT22;11117;48.644;9.006;2024-01-30T07:46:42;4.30;99.90
21906;DHT22;11117;48.644;9.006;2024-01-30T07:49:08;4.30;99.90
21906;DHT22;11117;48.644;9.006;2024-01-30T07:51:33;4.40;99.90
21906;DHT22;11117;48.644;9.006;2024-01-30T07:53:59;4.50;99.90
21906;DHT22;11117;48.644;9.006;2024-01-30T07:56:25;4.60;99.90
21906;DHT22;11117;48.644;9.006;2024-01-30T07:58:50;4.70;99.90
21906;DHT22;11117;48.644;9.006;2024-01-30T08:01:16;4.90;99.90
21906;DHT22;11117;48.644;9.006;2024-01-30T08:03:41;5.00;99.90
21906;DHT22;11117;48.644;9.006;2024-01-30T08:06:09;5.10;99.90
21906;DHT22;11117;48.644;9.006;2024-01-30T08:08:35;5.30;99.90
21906;DHT22;11117;48.644;9.006;2024-01-30T08:11:00;5.40;99.90
21906;DHT22;11117;48.644;9.006;2024-01-30T08:13:26;5.50;99.90
21906;DHT22;11117;48.644;9.006;2024-01-30T08:15:52;5.60;99.90
21906;DHT22;11117;48.644;9.006;2024-01-30T08:18:17;5.70;99.90
21906;DHT22;11117;48.644;9.006;2024-01-30T08:20:43;5.80;99.90
21906;DHT22;11117;48.644;9.006;2024-01-30T08:23:08;5.90;99.90
21906;DHT22;11117;48.644;9.006;2024-01-30T08:25:34;6.00;99.90
21906;DHT22;11117;48.644;9.006;2024-01-30T08:27:59;6.10;99.90
21906;DHT22;11117;48.644;9.006;2024-01-30T08:30:25;6.20;99.90
21906;DHT22;11117;48.644;9.006;2024-01-30T08:32:50;6.30;99.90
21906;DHT22;11117;48.644;9.006;2024-01-30T08:35:16;6.50;99.90
21906;DHT22;11117;48.644;9.006;2024-01-30T08:37:41;6.50;99.90
21906;DHT22;11117;48.644;9.006;2024-01-30T08:40:08;6.60;99.90
21906;DHT22;11117;48.644;9.006;2024-01-30T08:42:33;6.60;99.90
21906;DHT22;11117;48.644;9.006;2024-01-30T08:44:59;6.60;99.90
21906;DHT22;11117;48.644;9.006;2024-01-30T08:47:24;6.70;99.90
21906;DHT22;11117;48.644;9.006;2024-01-30T08:49:50;6.70;99.90
21906;DHT22;11117;48.644;9.006;2024-01-30T08:52:16;6.80;99.90
21906;DHT22;11117;48.644;9.006;2024-01-30T08:54:41;6.80;99.90
21906;DHT22;11117;48.644;9.006;2024-01-30T08:57:07;6.80;99.90
21906;DHT22;11117;48.644;9.006;2024-01-30T08:59:32;7.00;99.90
21906;DHT22;11117;48.644;9.006;2024-01-30T09:01:59;7.20;99.90
21906;DHT22;11117;48.644;9.006;2024-01-30T09:04:25;7.20;99.90
21906;DHT22;11117;48.644;9.006;2024-01-30T09:06:50;7.20;99.90
21906;DHT22;11117;48.644;9.006;2024-01-30T09:09:16;7.20;99.90
21906;DHT22;11117;48.644;9.006;2024-01-30T09:11:42;7.20;99.90
21906;DHT22;11117;48.644;9.006;2024-01-30T09:14:07;7.30;99.90
21906;DHT22;11117;48.644;9.006;2024-01-30T09:16:33;7.40;99.90
21906;DHT22;11117;48.644;9.006;2024-01-30T09:18:59;7.50;99.90
21906;DHT22;11117;48.644;9.006;2024-01-30T09:21:24;7.70;99.90
21906;DHT22;11117;48.644;9.006;2024-01-30T09:23:50;8.00;99.90
21906;DHT22;11117;48.644;9.006;2024-01-30T09:26:15;8.10;99.90
21906;DHT22;11117;48.644;9.006;2024-01-30T09:28:41;8.30;99.90
21906;DHT22;11117;48.644;9.006;2024-01-30T09:31:11;8.60;99.90
21906;DHT22;11117;48.644;9.006;2024-01-30T09:33:37;9.00;99.90
21906;DHT22;11117;48.644;9.006;2024-01-30T09:36:05;9.20;99.90
21906;DHT22;11117;48.644;9.006;2024-01-30T09:38:31;9.40;99.90
21906;DHT22;11117;48.644;9.006;2024-01-30T09:41:02;9.70;99.90
21906;DHT22;11117;48.644;9.006;2024-01-30T09:43:33;9.90;99.90
21906;DHT22;11117;48.644;9.006;2024-01-30T09:45:59;10.00;99.90
21906;DHT22;11117;48.644;9.006;2024-01-30T09:48:27;10.20;99.90
21906;DHT22;11117;48.644;9.006;2024-01-30T09:50:53;10.30;99.90
21906;DHT22;11117;48.644;9.006;2024-01-30T09:53:19;10.40;99.90
21906;DHT22;11117;48.644;9.006;2024-01-30T09:55:46;10.50;99.90
21906;DHT22;11117;48.644;9.006;2024-01-30T09:58:12;10.60;99.90
21906;DHT22;11117;48.644;9.006;2024-01-30T10:00:37;10.60;99.90
21906;DHT22;11117;48.644;9.006;2024-01-30T10:03:03;10.70;99.90
21906;DHT22;11117;48.644;9.006;2024-01-30T10:05:31;10.70;99.90
21906;DHT22;11117;48.644;9.006;2024-01-30T10:07:57;10.70;99.90
21906;DHT22;11117;48.644;9.006;2024-01-30T10:10:23;10.70;99.90
21906;DHT22;11117;48.644;9.006;2024-01-30T10:12:49;10.70;99.90
21906;DHT22;11117;48.644;9.006;2024-01-30T10:15:15;10.60;99.90
21906;DHT22;11117;48.644;9.006;2024-01-30T10:17:40;10.50;99.90
21906;DHT22;11117;48.644;9.006;2024-01-30T10:20:06;10.50;99.90
21906;DHT22;11117;48.644;9.006;2024-01-30T10:22:32;10.50;99.90
21906;DHT22;11117;48.644;9.006;2024-01-30T10:24:58;10.60;99.90
21906;DHT22;11117;48.644;9.006;2024-01-30T10:27:28;10.70;99.90
21906;DHT22;11117;48.644;9.006;2024-01-30T10:29:53;10.90;99.90
21906;DHT22;11117;48.644;9.006;2024-01-30T10:32:20;10.90;99.90
21906;DHT22;11117;48.644;9.006;2024-01-30T10:34:45;11.00;99.90
21906;DHT22;11117;48.644;9.006;2024-01-30T10:37:11;11.10;99.90
21906;DHT22;11117;48.644;9.006;2024-01-30T10:39:38;11.40;99.90
21906;DHT22;11117;48.644;9.006;2024-01-30T10:42:04;11.60;99.90
21906;DHT22;11117;48.644;9.006;2024-01-30T10:44:36;11.70;99.90
21906;DHT22;11117;48.644;9.006;2024-01-30T10:47:06;11.80;99.90
21906;DHT22;11117;48.644;9.006;2024-01-30T10:49:32;11.80;99.90
21906;DHT22;11117;48.644;9.006;2024-01-30T10:51:58;12.00;99.90
21906;DHT22;11117;48.644;9.006;2024-01-30T10:54:25;12.10;99.90
21906;DHT22;11117;48.644;9.006;2024-01-30T10:56:52;12.20;99.90
21906;DHT22;11117;48.644;9.006;2024-01-30T10:59:19;12.20;99.90
21906;DHT22;11117;48.644;9.006;2024-01-30T11:01:45;12.20;99.90
21906;DHT22;11117;48.644;9.006;2024-01-30T11:04:11;12.30;99.90
21906;DHT22;11117;48.644;9.006;2024-01-30T11:06:42;12.50;99.90
21906;DHT22;11117;48.644;9.006;2024-01-30T11:09:11;12.60;99.90
21906;DHT22;11117;48.644;9.006;2024-01-30T11:11:56;12.80;99.90
21906;DHT22;11117;48.644;9.006;2024-01-30T11:14:32;12.90;99.90
21906;DHT22;11117;48.644;9.006;2024-01-30T11:16:58;13.10;99.90
21906;DHT22;11117;48.644;9.006;2024-01-30T11:19:27;13.00;99.90
21906;DHT22;11117;48.644;9.006;2024-01-30T11:21:53;13.00;99.90
21906;DHT22;11117;48.644;9.006;2024-01-30T11:24:20;13.20;99.90
21906;DHT22;11117;48.644;9.006;2024-01-30T11:26:46;13.40;99.90
21906;DHT22;11117;48.644;9.006;2024-01-30T11:29:13;13.30;99.90
21906;DHT22;11117;48.644;9.006;2024-01-30T11:31:39;13.10;99.90
21906;DHT22;11117;48.644;9.006;2024-01-30T11:34:05;13.10;99.90
21906;DHT22;11117;48.644;9.006;2024-01-30T11:36:32;13.30;99.90
21906;DHT22;11117;48.644;9.006;2024-01-30T11:39:01;13.50;99.90
21906;DHT22;11117;48.644;9.006;2024-01-30T11:41:28;13.50;99.90
21906;DHT22;11117;48.644;9.006;2024-01-30T11:43:54;13.60;99.90
21906;DHT22;11117;48.644;9.006;2024-01-30T11:46:20;13.70;99.90
21906;DHT22;11117;48.644;9.006;2024-01-30T11:48:45;13.50;99.90
21906;DHT22;11117;48.644;9.006;2024-01-30T11:51:13;13.20;99.90
21906;DHT22;11117;48.644;9.006;2024-01-30T11:53:39;13.20;99.90
21906;DHT22;11117;48.644;9.006;2024-01-30T11:56:08;13.00;99.90
21906;DHT22;11117;48.644;9.006;2024-01-30T11:58:34;12.90;99.90
21906;DHT22;11117;48.644;9.006;2024-01-30T12:01:00;13.00;99.90
21906;DHT22;11117;48.644;9.006;2024-01-30T12:03:25;13.10;99.90
21906;DHT22;11117;48.644;9.006;2024-01-30T12:05:58;13.10;99.90
21906;DHT22;11117;48.644;9.006;2024-01-30T12:08:23;13.10;99.90
21906;DHT22;11117;48.644;9.006;2024-01-30T12:10:58;13.10;99.90
21906;DHT22;11117;48.644;9.006;2024-01-30T12:13:25;13.20;99.90
21906;DHT22;11117;48.644;9.006;2024-01-30T12:15:51;13.40;99.90
21906;DHT22;11117;48.644;9.006;2024-01-30T12:18:18;13.50;99.90
21906;DHT22;11117;48.644;9.006;2024-01-30T12:20:44;13.50;99.90
21906;DHT22;11117;48.644;9.006;2024-01-30T12:23:12;13.30;99.90
21906;DHT22;11117;48.644;9.006;2024-01-30T12:25:38;13.50;99.90
21906;DHT22;11117;48.644;9.006;2024-01-30T12:28:03;13.40;99.90
21906;DHT22;11117;48.644;9.006;2024-01-30T12:30:29;13.50;99.90
21906;DHT22;11117;48.644;9.006;2024-01-30T12:32:55;13.40;99.90
21906;DHT22;11117;48.644;9.006;2024-01-30T12:35:20;13.50;99.90
21906;DHT22;11117;48.644;9.006;2024-01-30T12:37:47;13.60;99.90
21906;DHT22;11117;48.644;9.006;2024-01-30T12:40:14;13.70;99.90
21906;DHT22;11117;48.644;9.006;2024-01-30T12:42:43;13.60;99.90
21906;DHT22;11117;48.644;9.006;2024-01-30T12:45:11;13.80;99.90
21906;DHT22;11117;48.644;9.006;2024-01-30T12:47:38;13.80;99.90
21906;DHT22;11117;48.644;9.006;2024-01-30T12:50:04;13.70;99.90
21906;DHT22;11117;48.644;9.006;2024-01-30T12:52:30;13.60;99.90
21906;DHT22;11117;48.644;9.006;2024-01-30T12:54:56;13.30;99.90
21906;DHT22;11117;48.644;9.006;2024-01-30T12:57:21;13.40;99.90
21906;DHT22;11117;48.644;9.006;2024-01-30T12:59:48;13.40;99.90
21906;DHT22;11117;48.644;9.006;2024-01-30T13:02:15;13.30;99.90
21906;DHT22;11117;48.644;9.006;2024-01-30T13:04:40;13.40;99.90
21906;DHT22;11117;48.644;9.006;2024-01-30T13:07:06;13.50;99.90
21906;DHT22;11117;48.644;9.006;2024-01-30T13:09:32;13.50;99.90
21906;DHT22;11117;48.644;9.006;2024-01-30T13:11:58;13.50;99.90
21906;DHT22;11117;48.644;9.006;2024-01-30T13:14:24;13.70;99.90
21906;DHT22;11117;48.644;9.006;2024-01-30T13:16:50;13.60;99.50
21906;DHT22;11117;48.644;9.006;2024-01-30T13:19:15;13.70;99.80
21906;DHT22;11117;48.644;9.006;2024-01-30T13:21:41;13.70;99.90
21906;DHT22;11117;48.644;9.006;2024-01-30T13:24:06;13.70;99.90
21906;DHT22;11117;48.644;9.006;2024-01-30T13:26:32;13.70;99.50
21906;DHT22;11117;48.644;9.006;2024-01-30T13:28:58;13.70;99.90
21906;DHT22;11117;48.644;9.006;2024-01-30T13:31:24;13.80;99.90
21906;DHT22;11117;48.644;9.006;2024-01-30T13:33:49;13.70;99.70
21906;DHT22;11117;48.644;9.006;2024-01-30T13:36:15;13.70;99.90
21906;DHT22;11117;48.644;9.006;2024-01-30T13:38:41;13.80;99.90
21906;DHT22;11117;48.644;9.006;2024-01-30T13:41:11;13.90;99.70
21906;DHT22;11117;48.644;9.006;2024-01-30T13:43:36;13.90;99.90
21906;DHT22;11117;48.644;9.006;2024-01-30T13:46:02;14.00;99.90
21906;DHT22;11117;48.644;9.006;2024-01-30T13:48:27;14.30;99.90
21906;DHT22;11117;48.644;9.006;2024-01-30T13:50:54;14.40;99.90
21906;DHT22;11117;48.644;9.006;2024-01-30T13:53:22;14.60;99.90
21906;DHT22;11117;48.644;9.006;2024-01-30T13:55:47;14.60;99.90
21906;DHT22;11117;48.644;9.006;2024-01-30T13:58:13;14.70;99.90
21906;DHT22;11117;48.644;9.006;2024-01-30T14:00:38;14.70;99.90
21906;DHT22;11117;48.644;9.006;2024-01-30T14:03:04;14.80;99.90
21906;DHT22;11117;48.644;9.006;2024-01-30T14:05:30;14.90;99.90
21906;DHT22;11117;48.644;9.006;2024-01-30T14:07:57;14.90;99.90
21906;DHT22;11117;48.644;9.006;2024-01-30T14:10:23;15.00;99.90
21906;DHT22;11117;48.644;9.006;2024-01-30T14:12:48;14.90;99.90
21906;DHT22;11117;48.644;9.006;2024-01-30T14:15:14;14.90;99.90
21906;DHT22;11117;48.644;9.006;2024-01-30T14:17:40;15.00;99.90
21906;DHT22;11117;48.644;9.006;2024-01-30T14:20:06;15.00;99.50
21906;DHT22;11117;48.644;9.006;2024-01-30T14:22:33;15.10;99.90
21906;DHT22;11117;48.644;9.006;2024-01-30T14:25:02;15.00;99.90
21906;DHT22;11117;48.644;9.006;2024-01-30T14:27:28;15.00;99.90
21906;DHT22;11117;48.644;9.006;2024-01-30T14:29:53;15.00;99.90
21906;DHT22;11117;48.644;9.006;2024-01-30T14:32:19;15.10;99.90
21906;DHT22;11117;48.644;9.006;2024-01-30T14:34:45;15.00;99.90
21906;DHT22;11117;48.644;9.006;2024-01-30T14:37:10;15.00;99.90
21906;DHT22;11117;48.644;9.006;2024-01-30T14:39:36;15.00;99.90
21906;DHT22;11117;48.644;9.006;2024-01-30T14:42:01;15.00;99.90
21906;DHT22;11117;48.644;9.006;2024-01-30T14:44:27;14.90;99.90
21906;DHT22;11117;48.644;9.006;2024-01-30T14:46:52;14.90;99.90
21906;DHT22;11117;48.644;9.006;2024-01-30T14:49:18;14.90;99.90
21906;DHT22;11117;48.644;9.006;2024-01-30T14:51:43;14.80;99.90
21906;DHT22;11117;48.644;9.006;2024-01-30T14:54:09;14.80;99.90
21906;DHT22;11117;48.644;9.006;2024-01-30T14:56:34;14.70;99.90
21906;DHT22;11117;48.644;9.006;2024-01-30T14:59:00;14.60;99.90
21906;DHT22;11117;48.644;9.006;2024-01-30T15:01:26;14.60;99.90
21906;DHT22;11117;48.644;9.006;2024-01-30T15:03:51;14.50;99.90
21906;DHT22;11117;48.644;9.006;2024-01-30T15:06:17;14.40;99.90
21906;DHT22;11117;48.644;9.006;2024-01-30T15:08:43;14.30;99.90
21906;DHT22;11117;48.644;9.006;2024-01-30T15:11:10;14.20;99.90
21906;DHT22;11117;48.644;9.006;2024-01-30T15:13:36;14.10;99.90
21906;DHT22;11117;48.644;9.006;2024-01-30T15:16:02;14.00;99.90
21906;DHT22;11117;48.644;9.006;2024-01-30T15:18:28;13.90;99.90
21906;DHT22;11117;48.644;9.006;2024-01-30T15:20:54;13.80;99.90
21906;DHT22;11117;48.644;9.006;2024-01-30T15:23:19;13.70;99.90
21906;DHT22;11117;48.644;9.006;2024-01-30T15:25:45;13.60;99.90
21906;DHT22;11117;48.644;9.006;2024-01-30T15:28:10;13.40;99.90
21906;DHT22;11117;48.644;9.006;2024-01-30T15:30:36;13.20;99.90
21906;DHT22;11117;48.644;9.006;2024-01-30T15:33:01;13.20;99.90